createdAt,value
2023-03-26T00:00:14.964Z,36.00
2023-03-26T00:02:41.184Z,36.00
2023-03-26T00:05:08.602Z,36.00
2023-03-26T00:08:00.703Z,36.00
2023-03-26T00:10:26.762Z,36.00
2023-03-26T00:12:52.826Z,35.90
2023-03-26T00:15:18.898Z,36.00
2023-03-26T00:17:48.787Z,35.90
2023-03-26T00:20:15.532Z,35.90
2023-03-26T00:22:41.573Z,36.00
2023-03-26T00:25:11.348Z,35.90
2023-03-26T00:27:44.819Z,35.90
2023-03-26T00:30:11.549Z,35.90
2023-03-26T00:32:53.489Z,35.90
2023-03-26T00:35:23.502Z,35.90
2023-03-26T00:37:56.333Z,35.90
2023-03-26T00:40:31.445Z,35.90
2023-03-26T00:43:01.700Z,35.90
2023-03-26T00:45:31.438Z,36.00
2023-03-26T00:47:59.701Z,35.90
2023-03-26T00:50:30.484Z,36.00
2023-03-26T00:52:56.551Z,36.00
2023-03-26T00:55:23.459Z,35.90
2023-03-26T00:57:49.684Z,35.90
2023-03-26T01:00:55.930Z,36.00
2023-03-26T01:03:26.797Z,36.00
2023-03-26T01:06:26.994Z,36.00
2023-03-26T01:09:00.477Z,36.00
2023-03-26T01:11:49.105Z,36.00
2023-03-26T01:14:24.412Z,36.00
2023-03-26T01:16:56.762Z,36.00
2023-03-26T01:20:14.166Z,36.00
2023-03-26T01:22:55.583Z,36.00
2023-03-26T01:25:26.956Z,35.90
2023-03-26T01:27:57.398Z,36.00
2023-03-26T01:31:00.699Z,36.00
2023-03-26T01:33:53.507Z,36.00
2023-03-26T01:36:29.608Z,36.00
2023-03-26T01:39:26.975Z,35.90
2023-03-26T01:42:08.816Z,36.00
2023-03-26T01:44:51.998Z,36.00
2023-03-26T01:47:20.775Z,36.00
2023-03-26T01:49:50.520Z,35.90
2023-03-26T01:52:25.373Z,36.00
2023-03-26T01:54:56.112Z,35.90
2023-03-26T01:57:50.718Z,35.90
2023-03-26T02:01:07.339Z,36.00
2023-03-26T02:03:46.839Z,36.00
2023-03-26T02:06:25.862Z,35.90
2023-03-26T02:09:16.953Z,36.00
2023-03-26T02:11:44.418Z,35.90
2023-03-26T02:14:37.069Z,36.00
2023-03-26T02:17:09.390Z,36.00
2023-03-26T02:19:36.679Z,36.00
2023-03-26T02:22:10.922Z,36.00
2023-03-26T02:24:37.980Z,36.00
2023-03-26T02:27:07.132Z,36.00
2023-03-26T02:29:40.477Z,36.00
2023-03-26T02:32:08.514Z,35.90
2023-03-26T02:34:39.511Z,36.00
2023-03-26T02:37:12.649Z,36.00
2023-03-26T02:39:38.772Z,36.00
2023-03-26T02:42:05.341Z,36.00
2023-03-26T02:44:31.476Z,35.90
2023-03-26T02:46:58.571Z,35.90
2023-03-26T02:49:28.521Z,35.90
2023-03-26T02:51:56.667Z,35.90
2023-03-26T02:54:25.340Z,35.90
2023-03-26T02:57:16.489Z,35.90
2023-03-26T02:59:42.713Z,35.90
2023-03-26T03:02:14.675Z,35.90
2023-03-26T03:04:44.809Z,35.90
2023-03-26T03:07:15.392Z,35.90
2023-03-26T03:09:42.531Z,35.90
2023-03-26T03:12:11.851Z,35.90
2023-03-26T03:14:37.981Z,35.90
2023-03-26T03:17:08.032Z,35.80
2023-03-26T03:19:47.751Z,35.90
2023-03-26T03:22:13.806Z,35.80
2023-03-26T03:24:47.990Z,35.80
2023-03-26T03:27:16.389Z,35.80
2023-03-26T03:29:42.680Z,35.80
2023-03-26T03:32:08.734Z,35.70
2023-03-26T03:34:43.029Z,35.70
2023-03-26T03:37:09.101Z,35.70
2023-03-26T03:39:37.946Z,35.80
2023-03-26T03:42:04.078Z,35.80
2023-03-26T03:44:35.687Z,35.70
2023-03-26T03:47:06.493Z,35.70
2023-03-26T03:49:34.121Z,35.80
2023-03-26T03:52:00.917Z,35.80
2023-03-26T03:54:27.643Z,35.60
2023-03-26T03:56:53.764Z,35.70
2023-03-26T03:59:20.136Z,35.70
2023-03-26T04:01:56.767Z,35.60
2023-03-26T04:04:23.967Z,35.60
2023-03-26T04:06:51.034Z,35.70
2023-03-26T04:09:20.173Z,35.60
2023-03-26T04:11:50.323Z,35.70
2023-03-26T04:14:19.627Z,35.70
2023-03-26T04:16:48.262Z,35.60
2023-03-26T04:19:15.429Z,35.60
2023-03-26T04:21:42.152Z,35.60
2023-03-26T04:24:08.849Z,35.60
2023-03-26T04:26:40.933Z,35.60
2023-03-26T04:29:19.662Z,35.60
2023-03-26T04:31:46.360Z,35.60
2023-03-26T04:34:25.135Z,35.60
2023-03-26T04:36:53.817Z,35.50
2023-03-26T04:39:28.654Z,35.60
2023-03-26T04:41:55.566Z,35.50
2023-03-26T04:44:22.904Z,35.50
2023-03-26T04:46:55.661Z,35.50
2023-03-26T04:49:21.744Z,35.50
2023-03-26T04:51:54.008Z,35.50
2023-03-26T04:54:25.389Z,35.50
2023-03-26T04:57:01.885Z,35.50
2023-03-26T04:59:36.547Z,35.50
2023-03-26T05:02:05.047Z,35.50
2023-03-26T05:04:35.968Z,35.40
2023-03-26T05:07:06.692Z,35.50
2023-03-26T05:09:33.653Z,35.40
2023-03-26T05:12:03.993Z,35.40
2023-03-26T05:14:30.216Z,35.40
2023-03-26T05:16:56.444Z,35.40
2023-03-26T05:19:22.540Z,35.40
2023-03-26T05:21:51.933Z,35.40
2023-03-26T05:24:19.024Z,35.40
2023-03-26T05:26:48.233Z,35.30
2023-03-26T05:29:21.642Z,35.30
2023-03-26T05:31:51.775Z,35.40
2023-03-26T05:34:20.097Z,35.40
2023-03-26T05:36:49.951Z,35.40
2023-03-26T05:39:16.065Z,35.30
2023-03-26T05:41:42.237Z,35.40
2023-03-26T05:44:08.289Z,35.40
2023-03-26T05:46:34.558Z,35.30
2023-03-26T05:49:00.731Z,36.00
2023-03-26T05:51:26.808Z,35.40
2023-03-26T05:54:23.132Z,35.40
2023-03-26T05:56:49.202Z,35.40
2023-03-26T05:59:15.949Z,35.40
2023-03-26T06:01:45.586Z,35.30
2023-03-26T06:04:13.041Z,35.30
2023-03-26T06:06:39.308Z,35.40
2023-03-26T06:09:06.054Z,35.40
2023-03-26T06:11:32.802Z,35.40
2023-03-26T06:14:00.014Z,35.40
2023-03-26T06:16:27.674Z,35.40
2023-03-26T06:18:56.736Z,35.40
2023-03-26T06:21:28.067Z,35.40
2023-03-26T06:23:54.697Z,35.40
2023-03-26T06:26:22.776Z,35.40
2023-03-26T06:28:51.036Z,35.30
2023-03-26T06:31:20.948Z,35.40
2023-03-26T06:33:50.643Z,35.40
2023-03-26T06:36:16.767Z,35.40
2023-03-26T06:38:46.727Z,35.40
2023-03-26T06:41:15.222Z,35.40
2023-03-26T06:43:41.314Z,35.40
2023-03-26T06:46:07.466Z,35.40
2023-03-26T06:48:33.656Z,35.50
2023-03-26T06:51:00.635Z,35.40
2023-03-26T06:53:26.842Z,35.40
2023-03-26T06:55:56.210Z,35.40
2023-03-26T06:58:22.393Z,35.40
2023-03-26T07:00:55.763Z,35.40
2023-03-26T07:03:22.780Z,35.40
2023-03-26T07:05:49.015Z,35.40
2023-03-26T07:08:18.598Z,35.40
2023-03-26T07:10:48.980Z,35.40
2023-03-26T07:13:16.637Z,35.40
2023-03-26T07:15:42.670Z,35.40
2023-03-26T07:18:09.050Z,35.40
2023-03-26T07:20:35.440Z,35.40
2023-03-26T07:23:01.866Z,35.40
2023-03-26T07:25:28.325Z,35.40
2023-03-26T07:28:20.184Z,35.40
2023-03-26T07:31:00.086Z,35.40
2023-03-26T07:34:02.486Z,35.40
2023-03-26T07:36:42.874Z,35.40
2023-03-26T07:39:47.401Z,35.40
2023-03-26T07:43:00.126Z,35.40
2023-03-26T07:45:39.092Z,35.40
2023-03-26T07:48:40.539Z,35.50
2023-03-26T07:51:10.936Z,35.40
2023-03-26T07:53:37.300Z,35.50
2023-03-26T07:56:17.068Z,36.10
2023-03-26T07:59:17.656Z,35.50
2023-03-26T08:02:06.703Z,35.40
2023-03-26T08:05:10.103Z,35.40
2023-03-26T08:07:59.137Z,35.40
2023-03-26T08:11:02.219Z,35.40
2023-03-26T08:13:53.217Z,35.40
2023-03-26T08:16:44.341Z,35.40
2023-03-26T08:19:53.886Z,35.40
2023-03-26T08:22:33.735Z,35.40
2023-03-26T08:25:16.581Z,35.40
2023-03-26T08:28:07.789Z,35.40
2023-03-26T08:30:36.468Z,35.40
2023-03-26T08:33:22.141Z,35.40
2023-03-26T08:35:49.384Z,35.40
2023-03-26T08:38:18.809Z,35.40
2023-03-26T08:41:10.695Z,35.50
2023-03-26T08:44:07.978Z,35.40
2023-03-26T08:47:32.592Z,35.40
2023-03-26T08:50:32.038Z,35.40
2023-03-26T08:53:36.450Z,35.40
2023-03-26T08:56:52.023Z,35.50
2023-03-26T09:00:05.405Z,35.50
2023-03-26T09:03:09.771Z,35.50
2023-03-26T09:06:13.851Z,35.50
2023-03-26T09:09:35.328Z,35.50
2023-03-26T09:12:13.756Z,35.50
2023-03-26T09:14:58.201Z,35.50
2023-03-26T09:18:27.175Z,35.50
2023-03-26T09:21:24.896Z,35.50
2023-03-26T09:23:53.492Z,35.50
2023-03-26T09:26:27.205Z,35.50
2023-03-26T09:29:28.234Z,35.50
2023-03-26T09:32:31.275Z,35.50
2023-03-26T09:35:39.880Z,35.50
2023-03-26T09:38:44.998Z,35.50
2023-03-26T09:41:42.845Z,35.50
2023-03-26T09:44:24.656Z,35.50
2023-03-26T09:47:14.783Z,35.50
2023-03-26T09:50:13.331Z,35.50
2023-03-26T09:53:01.990Z,35.50
2023-03-26T09:56:05.612Z,35.40
2023-03-26T09:59:13.281Z,35.50
2023-03-26T10:01:48.546Z,35.50
2023-03-26T10:04:59.033Z,35.50
2023-03-26T10:08:00.005Z,35.50
2023-03-26T10:11:05.522Z,35.50
2023-03-26T10:13:58.274Z,35.50
2023-03-26T10:16:52.172Z,35.50
2023-03-26T10:19:45.643Z,35.50
2023-03-26T10:22:47.271Z,35.50
2023-03-26T10:25:48.276Z,35.50
2023-03-26T10:28:34.610Z,35.50
2023-03-26T10:31:09.757Z,35.50
2023-03-26T10:34:27.989Z,35.50
2023-03-26T10:37:53.672Z,35.50
2023-03-26T10:40:57.817Z,35.50
2023-03-26T10:44:07.425Z,35.50
2023-03-26T10:47:28.361Z,35.50
2023-03-26T10:50:25.638Z,35.50
2023-03-26T10:53:26.669Z,35.50
2023-03-26T10:56:22.356Z,35.50
2023-03-26T10:58:49.387Z,35.50
2023-03-26T11:01:38.150Z,35.50
2023-03-26T11:04:15.733Z,35.50
2023-03-26T11:07:08.725Z,35.50
2023-03-26T11:10:29.232Z,35.50
2023-03-26T11:13:13.422Z,35.50
2023-03-26T11:16:14.493Z,35.50
2023-03-26T11:19:23.718Z,35.50
2023-03-26T11:22:28.582Z,35.50
2023-03-26T11:25:17.442Z,35.50
2023-03-26T11:27:52.576Z,35.50
2023-03-26T11:30:39.700Z,35.50
2023-03-26T11:33:54.844Z,35.50
2023-03-26T11:37:14.466Z,35.50
2023-03-26T11:40:12.408Z,35.60
2023-03-26T11:42:40.447Z,35.50
2023-03-26T11:45:15.866Z,35.50
2023-03-26T11:48:14.366Z,35.80
2023-03-26T11:50:49.139Z,35.50
2023-03-26T11:53:41.275Z,35.50
2023-03-26T11:57:05.734Z,35.50
2023-03-26T11:59:55.766Z,35.50
2023-03-26T12:02:41.792Z,35.50
2023-03-26T12:05:19.062Z,35.50
2023-03-26T12:07:50.463Z,35.50
2023-03-26T12:10:37.162Z,35.50
2023-03-26T12:13:21.024Z,35.50
2023-03-26T12:15:50.870Z,35.50
2023-03-26T12:18:26.809Z,35.50
2023-03-26T12:21:08.206Z,35.50
2023-03-26T12:24:14.849Z,35.50
2023-03-26T12:26:45.705Z,35.50
2023-03-26T12:29:18.425Z,35.50
2023-03-26T12:31:56.329Z,35.50
2023-03-26T12:34:39.655Z,35.50
2023-03-26T12:37:28.304Z,35.40
2023-03-26T12:40:26.532Z,35.40
2023-03-26T12:44:48.503Z,35.50
2023-03-26T12:45:43.078Z,35.40
2023-03-26T12:48:15.006Z,35.40
2023-03-26T12:51:31.962Z,35.40
2023-03-26T12:54:06.096Z,35.50
2023-03-26T12:57:12.431Z,35.50
2023-03-26T13:00:00.302Z,35.50
2023-03-26T13:03:00.426Z,35.50
2023-03-26T13:05:48.649Z,35.50
2023-03-26T13:08:38.847Z,35.50
2023-03-26T13:11:20.200Z,35.50
2023-03-26T13:13:57.412Z,35.50
2023-03-26T13:16:54.109Z,35.50
2023-03-26T13:19:57.007Z,35.40
2023-03-26T13:22:50.628Z,35.50
2023-03-26T13:25:23.260Z,35.50
2023-03-26T13:28:18.973Z,35.50
2023-03-26T13:31:03.970Z,35.40
2023-03-26T13:33:30.083Z,35.50
2023-03-26T13:36:23.301Z,35.40
2023-03-26T13:39:19.418Z,35.40
2023-03-26T13:42:26.056Z,35.50
2023-03-26T13:45:35.000Z,35.50
2023-03-26T13:48:09.617Z,35.50
2023-03-26T13:50:41.411Z,35.50
2023-03-26T13:53:22.084Z,35.50
2023-03-26T13:55:59.293Z,35.50
2023-03-26T13:58:48.311Z,35.50
2023-03-26T14:01:21.181Z,35.50
2023-03-26T14:04:03.242Z,35.40
2023-03-26T14:06:53.425Z,35.50
2023-03-26T14:09:52.548Z,35.50
2023-03-26T14:12:51.674Z,35.50
2023-03-26T14:15:54.595Z,35.50
2023-03-26T14:19:04.076Z,35.50
2023-03-26T14:21:48.966Z,35.50
2023-03-26T14:24:58.147Z,35.40
2023-03-26T14:28:20.508Z,35.50
2023-03-26T14:31:37.377Z,35.50
2023-03-26T14:34:35.466Z,35.40
2023-03-26T14:37:43.301Z,35.50
2023-03-26T14:40:29.932Z,35.50
2023-03-26T14:43:44.159Z,35.40
2023-03-26T14:47:01.506Z,35.50
2023-03-26T14:49:53.067Z,35.50
2023-03-26T14:52:36.614Z,35.50
2023-03-26T14:55:29.421Z,35.50
2023-03-26T14:58:21.431Z,35.40
2023-03-26T15:01:07.039Z,35.40
2023-03-26T15:04:01.086Z,35.50
2023-03-26T15:07:00.656Z,35.50
2023-03-26T15:10:06.026Z,35.50
2023-03-26T15:13:03.472Z,35.50
2023-03-26T15:15:59.354Z,35.60
2023-03-26T15:19:22.143Z,35.60
2023-03-26T15:22:16.402Z,35.60
2023-03-26T15:25:22.543Z,35.60
2023-03-26T15:28:16.561Z,35.60
2023-03-26T15:31:32.089Z,35.60
2023-03-26T15:34:42.248Z,35.60
2023-03-26T15:37:45.667Z,35.50
2023-03-26T15:40:54.611Z,35.60
2023-03-26T15:43:21.324Z,35.50
2023-03-26T15:46:08.952Z,35.50
2023-03-26T15:49:11.736Z,35.50
2023-03-26T15:51:48.683Z,35.40
2023-03-26T15:54:58.170Z,35.40
2023-03-26T15:57:40.303Z,35.40
2023-03-26T16:00:25.297Z,35.40
2023-03-26T16:03:10.957Z,35.30
2023-03-26T16:06:06.524Z,35.30
2023-03-26T16:09:19.188Z,35.30
2023-03-26T16:12:23.554Z,35.20
2023-03-26T16:15:19.445Z,35.20
2023-03-26T16:18:16.672Z,35.20
2023-03-26T16:20:55.354Z,35.20
2023-03-26T16:23:47.544Z,35.20
2023-03-26T16:26:36.400Z,35.20
2023-03-26T16:29:13.552Z,35.20
2023-03-26T16:32:21.767Z,35.10
2023-03-26T16:35:01.261Z,35.10
2023-03-26T16:37:49.713Z,35.10
2023-03-26T16:40:26.495Z,35.10
2023-03-26T16:43:26.383Z,35.00
2023-03-26T16:46:28.955Z,35.00
2023-03-26T16:49:11.811Z,35.00
2023-03-26T16:52:27.921Z,35.00
2023-03-26T16:55:23.543Z,34.90
2023-03-26T16:58:28.732Z,34.90
2023-03-26T17:01:29.623Z,34.90
2023-03-26T17:04:02.262Z,34.90
2023-03-26T17:06:55.871Z,34.80
2023-03-26T17:09:55.408Z,34.80
2023-03-26T17:12:36.304Z,34.80
2023-03-26T17:15:33.503Z,35.50
2023-03-26T17:18:26.933Z,34.80
2023-03-26T17:21:04.038Z,34.90
2023-03-26T17:23:49.946Z,34.80
2023-03-26T17:26:41.685Z,34.80
2023-03-26T17:29:39.761Z,34.80
2023-03-26T17:32:48.672Z,34.80
2023-03-26T17:35:16.368Z,34.80
2023-03-26T17:37:47.341Z,34.80
2023-03-26T17:40:48.163Z,34.70
2023-03-26T17:43:50.571Z,34.70
2023-03-26T17:46:52.720Z,34.70
2023-03-26T17:49:26.297Z,34.70
2023-03-26T17:52:50.486Z,34.70
2023-03-26T17:55:30.197Z,34.70
2023-03-26T17:58:02.096Z,34.70
2023-03-26T18:00:58.305Z,34.80
2023-03-26T18:03:54.083Z,34.70
2023-03-26T18:06:43.967Z,34.70
2023-03-26T18:09:30.825Z,34.70
2023-03-26T18:12:06.988Z,34.60
2023-03-26T18:15:31.277Z,34.70
2023-03-26T18:18:48.504Z,34.70
2023-03-26T18:21:29.118Z,34.70
2023-03-26T18:24:15.279Z,34.70
2023-03-26T18:27:11.858Z,34.70
2023-03-26T18:30:22.067Z,34.70
2023-03-26T18:33:15.144Z,34.70
2023-03-26T18:36:19.056Z,34.70
2023-03-26T18:38:46.211Z,34.70
2023-03-26T18:41:59.702Z,34.70
2023-03-26T18:44:32.753Z,34.70
2023-03-26T18:47:08.948Z,34.70
2023-03-26T18:49:36.150Z,34.70
2023-03-26T18:52:02.680Z,34.70
2023-03-26T18:54:35.431Z,34.70
2023-03-26T18:57:15.377Z,34.70
2023-03-26T18:59:50.744Z,34.70
2023-03-26T19:02:34.226Z,34.70
2023-03-26T19:05:02.311Z,35.40
2023-03-26T19:07:30.759Z,34.70
2023-03-26T19:09:59.636Z,34.70
2023-03-26T19:12:32.420Z,34.70
2023-03-26T19:15:17.563Z,34.70
2023-03-26T19:17:52.702Z,34.70
2023-03-26T19:20:37.540Z,34.70
2023-03-26T19:23:37.126Z,34.70
2023-03-26T19:26:13.080Z,34.70
2023-03-26T19:29:03.220Z,34.70
2023-03-26T19:31:34.968Z,34.70
2023-03-26T19:34:17.029Z,34.70
2023-03-26T19:37:03.665Z,34.70
2023-03-26T19:39:42.319Z,34.70
2023-03-26T19:42:18.664Z,34.70
2023-03-26T19:44:45.044Z,34.70
2023-03-26T19:47:16.922Z,34.70
2023-03-26T19:50:14.659Z,34.70
2023-03-26T19:52:42.033Z,34.70
2023-03-26T19:55:12.381Z,34.70
2023-03-26T19:57:38.465Z,34.70
2023-03-26T20:00:15.530Z,34.70
2023-03-26T20:02:49.939Z,34.70
2023-03-26T20:05:25.261Z,34.70
2023-03-26T20:07:54.602Z,34.70
2023-03-26T20:10:24.224Z,34.70
2023-03-26T20:12:50.273Z,34.90
2023-03-26T20:15:23.803Z,34.70
2023-03-26T20:17:51.794Z,34.70
2023-03-26T20:20:19.150Z,34.70
2023-03-26T20:22:49.061Z,34.70
2023-03-26T20:25:31.428Z,34.70
2023-03-26T20:27:58.394Z,34.70
2023-03-26T20:30:37.033Z,34.70
2023-03-26T20:33:12.672Z,34.70
2023-03-26T20:35:40.364Z,34.70
2023-03-26T20:38:16.031Z,34.70
2023-03-26T20:40:44.115Z,34.70
2023-03-26T20:43:29.274Z,34.70
2023-03-26T20:45:57.830Z,34.70
2023-03-26T20:48:25.906Z,34.70
2023-03-26T20:50:52.241Z,34.70
2023-03-26T20:53:23.073Z,34.70
2023-03-26T20:55:51.527Z,34.70
2023-03-26T20:58:31.722Z,34.70
2023-03-26T21:01:01.536Z,34.70
2023-03-26T21:03:27.773Z,34.80
2023-03-26T21:05:53.918Z,34.70
2023-03-26T21:08:24.948Z,34.70
2023-03-26T21:10:51.331Z,34.70
2023-03-26T21:13:40.170Z,34.70
2023-03-26T21:16:07.411Z,34.70
2023-03-26T21:18:33.889Z,34.70
2023-03-26T21:21:21.450Z,34.80
2023-03-26T21:24:15.436Z,34.70
2023-03-26T21:26:54.773Z,34.70
2023-03-26T21:29:24.047Z,34.70
2023-03-26T21:31:54.156Z,34.70
2023-03-26T21:34:22.806Z,34.70
2023-03-26T21:36:49.163Z,34.70
2023-03-26T21:39:15.824Z,34.70
2023-03-26T21:41:48.385Z,34.70
2023-03-26T21:44:32.276Z,34.70
2023-03-26T21:46:58.588Z,34.70
2023-03-26T21:49:25.471Z,34.70
2023-03-26T21:51:55.891Z,34.70
2023-03-26T21:54:31.212Z,34.80
2023-03-26T21:57:22.849Z,34.70
2023-03-26T22:00:14.251Z,34.70
2023-03-26T22:03:02.557Z,34.70
2023-03-26T22:06:10.773Z,34.70
2023-03-26T22:08:41.383Z,34.70
2023-03-26T22:11:10.801Z,34.70
2023-03-26T22:13:38.039Z,34.70
2023-03-26T22:16:07.385Z,34.70
2023-03-26T22:18:34.105Z,34.70
2023-03-26T22:21:02.107Z,34.70
2023-03-26T22:23:35.748Z,34.70
2023-03-26T22:26:04.700Z,34.80
2023-03-26T22:28:32.323Z,34.70
2023-03-26T22:31:08.045Z,34.70
2023-03-26T22:33:35.402Z,34.70
2023-03-26T22:36:01.764Z,34.80
2023-03-26T22:38:27.860Z,34.70
2023-03-26T22:40:56.078Z,34.70
2023-03-26T22:43:22.841Z,34.70
2023-03-26T22:45:50.752Z,34.70
2023-03-26T22:48:17.026Z,34.70
2023-03-26T22:50:45.624Z,34.70
2023-03-26T22:53:11.720Z,34.70
2023-03-26T22:55:37.825Z,34.80
2023-03-26T22:58:03.954Z,34.70
2023-03-26T23:00:35.689Z,34.70
2023-03-26T23:03:03.895Z,34.70
2023-03-26T23:05:30.269Z,34.70
2023-03-26T23:07:57.232Z,34.70
2023-03-26T23:10:23.378Z,34.70
2023-03-26T23:12:49.695Z,34.70
2023-03-26T23:15:15.806Z,34.70
2023-03-26T23:17:54.284Z,34.70
2023-03-26T23:20:23.252Z,34.70
2023-03-26T23:22:49.319Z,34.70
2023-03-26T23:25:15.506Z,34.70
2023-03-26T23:27:41.670Z,34.70
2023-03-26T23:30:12.693Z,34.60
2023-03-26T23:32:38.873Z,34.70
2023-03-26T23:35:05.633Z,34.70
2023-03-26T23:37:34.198Z,34.70
2023-03-26T23:40:08.864Z,34.70
2023-03-26T23:42:36.577Z,34.70
2023-03-26T23:45:05.134Z,34.60
2023-03-26T23:47:36.622Z,34.70
2023-03-26T23:50:15.927Z,34.70
2023-03-26T23:52:45.128Z,34.70
2023-03-26T23:55:11.210Z,34.70
2023-03-26T23:57:54.960Z,34.70
